Terminal Aerodrome Forecast
Issued by NWS Greer, SC

Home | Current Version | Previous Version | Text Only | Print | Product List | Glossary On
Versions: 1 2 3 4 5 6 7 8 9 10 11 12
000
FTUS42 KGSP 041130
TAFGSP
TAF
KGSP 041130Z 0412/0512 21003KT P6SM FEW090
     FM041700 21006KT P6SM SCT060
     FM042200 18004KT P6SM BKN060
     FM050100 18003KT P6SM SCT060=

USA.gov is the U.S. government's official web portal to all federal, state and local government web resources and services.